createdAt,value
2017-08-01T00:00:20.253Z,1006.3
2017-08-01T00:01:21.506Z,1006.23
2017-08-01T00:02:22.741Z,1006.13
2017-08-01T00:03:23.980Z,1006.14
2017-08-01T00:04:25.217Z,1006.18
2017-08-01T00:05:26.488Z,1006.23
2017-08-01T00:06:27.737Z,1006.25
2017-08-01T00:07:28.978Z,1006.23
2017-08-01T00:08:30.227Z,1006.19
2017-08-01T00:09:31.474Z,1006.13
2017-08-01T00:10:32.763Z,1006.11
2017-08-01T00:11:34.226Z,1006.05
2017-08-01T00:12:35.482Z,1006.01
2017-08-01T00:13:36.722Z,1005.98
2017-08-01T00:14:37.959Z,1005.94
2017-08-01T00:15:39.198Z,1005.93
2017-08-01T00:16:40.501Z,1005.9
2017-08-01T00:17:41.797Z,1005.89
2017-08-01T00:18:43.140Z,1005.84
2017-08-01T00:19:44.334Z,1005.81
2017-08-01T00:20:45.573Z,1005.81
2017-08-01T00:21:46.826Z,1005.79
2017-08-01T00:22:48.103Z,1005.83
2017-08-01T00:23:49.414Z,1005.8
2017-08-01T00:24:50.590Z,1005.76
2017-08-01T00:25:51.829Z,1005.67
2017-08-01T00:26:53.071Z,1005.6
2017-08-01T00:27:54.305Z,1005.53
2017-08-01T00:28:55.546Z,1005.45
2017-08-01T00:29:56.792Z,1005.38
2017-08-01T00:30:58.053Z,1005.37
2017-08-01T00:31:59.369Z,1005.42
2017-08-01T00:33:00.614Z,1005.49
2017-08-01T00:34:01.858Z,1005.56
2017-08-01T00:35:03.114Z,1005.58
2017-08-01T00:36:04.449Z,1005.55
2017-08-01T00:37:05.822Z,1005.58
2017-08-01T00:38:07.059Z,1005.64
2017-08-01T00:39:08.319Z,1005.62
2017-08-01T00:40:09.567Z,1005.64
2017-08-01T00:41:10.817Z,1005.57
2017-08-01T00:42:12.046Z,1005.5
2017-08-01T00:43:13.317Z,1005.45
2017-08-01T00:44:14.546Z,1005.45
2017-08-01T00:45:15.794Z,1005.46
2017-08-01T00:46:17.031Z,1005.46
2017-08-01T00:47:18.270Z,1005.46
2017-08-01T00:48:19.524Z,1005.46
2017-08-01T00:49:20.780Z,1005.4
2017-08-01T00:50:22.034Z,1005.37
2017-08-01T00:51:23.270Z,1005.37
2017-08-01T00:52:24.498Z,1005.42
2017-08-01T00:53:25.738Z,1005.52
2017-08-01T00:54:27.006Z,1005.61
2017-08-01T00:55:28.234Z,1005.67
2017-08-01T00:56:29.489Z,1005.71
2017-08-01T00:57:30.738Z,1005.7
2017-08-01T00:58:31.981Z,1005.71
2017-08-01T00:59:33.220Z,1005.67
2017-08-01T01:00:34.466Z,1005.65
2017-08-01T01:01:35.712Z,1005.64
2017-08-01T01:02:36.949Z,1005.55
2017-08-01T01:03:38.281Z,1005.53
2017-08-01T01:04:39.585Z,1005.48
2017-08-01T01:05:40.828Z,1005.46
2017-08-01T01:06:42.065Z,1005.36
2017-08-01T01:07:43.301Z,1005.3
2017-08-01T01:08:44.570Z,1005.31
2017-08-01T01:09:45.829Z,1005.34
2017-08-01T01:10:47.137Z,1005.43
2017-08-01T01:11:48.350Z,1005.45
2017-08-01T01:12:49.578Z,1005.49
2017-08-01T01:13:50.827Z,1005.5
2017-08-01T01:14:52.074Z,1005.51
2017-08-01T01:15:53.318Z,1005.53
2017-08-01T01:16:54.674Z,1005.57
2017-08-01T01:17:56.013Z,1005.61
2017-08-01T01:18:57.253Z,1005.61
2017-08-01T01:19:58.493Z,1005.65
2017-08-01T01:20:59.747Z,1005.68
2017-08-01T01:22:00.985Z,1005.68
2017-08-01T01:23:02.296Z,1005.67
2017-08-01T01:24:03.536Z,1005.61
2017-08-01T01:25:04.786Z,1005.6
2017-08-01T01:26:06.027Z,1005.56
2017-08-01T01:27:07.262Z,1005.59
2017-08-01T01:28:08.503Z,1005.57
2017-08-01T01:29:09.921Z,1005.54
2017-08-01T01:30:11.160Z,1005.55
2017-08-01T01:31:12.402Z,1005.56
2017-08-01T01:32:13.644Z,1005.56
2017-08-01T01:33:14.888Z,1005.58
2017-08-01T01:34:16.177Z,1005.61
2017-08-01T01:35:17.457Z,1005.71
2017-08-01T01:36:18.717Z,1005.71
2017-08-01T01:37:19.958Z,1005.8
2017-08-01T01:38:21.191Z,1005.76
2017-08-01T01:39:22.497Z,1005.81
2017-08-01T01:40:23.844Z,1005.82
2017-08-01T01:41:25.091Z,1005.82
2017-08-01T01:42:26.410Z,1005.81
2017-08-01T01:43:27.650Z,1005.79
2017-08-01T01:44:28.892Z,1005.8
2017-08-01T01:45:30.128Z,1005.81
2017-08-01T01:46:31.370Z,1005.83
2017-08-01T01:47:32.615Z,1005.8
2017-08-01T01:48:33.858Z,1005.84
2017-08-01T01:49:35.099Z,1005.82
2017-08-01T01:50:36.334Z,1005.83
2017-08-01T01:51:37.569Z,1005.89
2017-08-01T01:52:38.794Z,1005.84
2017-08-01T01:53:40.199Z,1005.84
2017-08-01T01:54:41.460Z,1005.84
2017-08-01T01:55:42.699Z,1005.84
2017-08-01T01:56:43.951Z,1005.81
2017-08-01T01:57:45.194Z,1005.88
2017-08-01T01:58:46.448Z,1005.89
2017-08-01T01:59:47.787Z,1005.94
2017-08-01T02:00:49.022Z,1005.93
2017-08-01T02:01:50.271Z,1005.93
2017-08-01T02:02:51.514Z,1005.92
2017-08-01T02:03:52.753Z,1005.93
2017-08-01T02:04:54.052Z,1005.92
2017-08-01T02:05:55.289Z,1005.93
2017-08-01T02:06:56.536Z,1005.93
2017-08-01T02:07:57.778Z,1005.94
2017-08-01T02:08:59.016Z,1005.95
2017-08-01T02:10:00.279Z,1005.95
2017-08-01T02:11:01.515Z,1005.96
2017-08-01T02:12:02.801Z,1006.01
2017-08-01T02:13:04.148Z,1006.04
2017-08-01T02:14:05.391Z,1006.03
2017-08-01T02:15:06.648Z,1006.03
2017-08-01T02:16:07.898Z,1006.03
2017-08-01T02:17:09.139Z,1006.03
2017-08-01T02:18:10.390Z,1006
2017-08-01T02:19:11.669Z,1006.01
2017-08-01T02:20:12.906Z,1006.02
2017-08-01T02:21:14.191Z,1006.01
2017-08-01T02:22:15.427Z,1005.98
2017-08-01T02:23:16.773Z,1005.99
2017-08-01T02:24:18.104Z,1005.99
2017-08-01T02:25:19.499Z,1005.96
2017-08-01T02:26:20.726Z,1005.94
2017-08-01T02:27:21.960Z,1005.98
2017-08-01T02:28:23.198Z,1005.92
2017-08-01T02:29:24.561Z,1005.97
2017-08-01T02:30:25.853Z,1005.99
2017-08-01T02:31:27.088Z,1005.98
2017-08-01T02:32:28.327Z,1005.97
2017-08-01T02:33:29.565Z,1005.96
2017-08-01T02:34:30.793Z,1005.98
2017-08-01T02:35:32.027Z,1005.96
2017-08-01T02:36:33.266Z,1005.97
2017-08-01T02:37:34.509Z,1005.96
2017-08-01T02:38:35.851Z,1005.97
2017-08-01T02:39:37.103Z,1005.95
2017-08-01T02:40:38.330Z,1006
2017-08-01T02:41:39.566Z,1005.97
2017-08-01T02:42:40.808Z,1005.98
2017-08-01T02:43:42.217Z,1005.96
2017-08-01T02:44:43.484Z,1005.97
2017-08-01T02:45:44.729Z,1005.95
2017-08-01T02:46:45.960Z,1005.97
2017-08-01T02:47:47.201Z,1005.98
2017-08-01T02:48:48.442Z,1005.94
2017-08-01T02:49:49.730Z,1005.94
2017-08-01T02:50:50.949Z,1005.98
2017-08-01T02:51:52.243Z,1005.95
2017-08-01T02:52:53.492Z,1005.96
2017-08-01T02:53:54.727Z,1005.96
2017-08-01T02:54:55.991Z,1006.01
2017-08-01T02:55:57.208Z,1005.98
2017-08-01T02:56:58.485Z,1005.98
2017-08-01T02:57:59.733Z,1005.9
2017-08-01T02:59:01.004Z,1005.87
2017-08-01T03:00:02.241Z,1005.86
2017-08-01T03:01:03.482Z,1005.82
2017-08-01T03:02:04.728Z,1005.8
2017-08-01T03:03:05.977Z,1005.76
2017-08-01T03:04:07.258Z,1005.75
2017-08-01T03:05:08.485Z,1005.69
2017-08-01T03:06:09.733Z,1005.69
2017-08-01T03:07:10.977Z,1005.69
2017-08-01T03:08:12.232Z,1005.68
2017-08-01T03:09:13.473Z,1005.69
2017-08-01T03:10:14.712Z,1005.71
2017-08-01T03:11:15.953Z,1005.66
2017-08-01T03:12:17.198Z,1005.68
2017-08-01T03:13:18.439Z,1005.66
2017-08-01T03:14:19.676Z,1005.6
2017-08-01T03:15:20.936Z,1005.58
2017-08-01T03:16:22.186Z,1005.61
2017-08-01T03:17:23.425Z,1005.61
2017-08-01T03:18:24.676Z,1005.61
2017-08-01T03:19:25.913Z,1005.6
2017-08-01T03:20:27.152Z,1005.6
2017-08-01T03:21:28.393Z,1005.61
2017-08-01T03:22:29.640Z,1005.6
2017-08-01T03:23:30.879Z,1005.63
2017-08-01T03:24:32.131Z,1005.65
2017-08-01T03:25:33.377Z,1005.66
2017-08-01T03:26:34.617Z,1005.66
2017-08-01T03:27:35.855Z,1005.72
2017-08-01T03:28:37.145Z,1005.67
2017-08-01T03:29:38.452Z,1005.68
2017-08-01T03:30:39.671Z,1005.7
2017-08-01T03:31:40.904Z,1005.7
2017-08-01T03:32:42.134Z,1005.69
2017-08-01T03:33:43.368Z,1005.73
2017-08-01T03:34:44.640Z,1005.68
2017-08-01T03:35:45.892Z,1005.7
2017-08-01T03:36:47.125Z,1005.67
2017-08-01T03:37:48.371Z,1005.65
2017-08-01T03:38:49.605Z,1005.68
2017-08-01T03:39:50.847Z,1005.69
2017-08-01T03:40:52.081Z,1005.73
2017-08-01T03:41:53.332Z,1005.76
2017-08-01T03:42:54.684Z,1005.76
2017-08-01T03:43:55.924Z,1005.76
2017-08-01T03:44:57.158Z,1005.75
2017-08-01T03:45:58.398Z,1005.75
2017-08-01T03:46:59.654Z,1005.69
2017-08-01T03:48:00.876Z,1005.62
2017-08-01T03:49:02.097Z,1005.61
2017-08-01T03:50:03.346Z,1005.57
2017-08-01T03:51:04.575Z,1005.59
2017-08-01T03:52:05.824Z,1005.58
2017-08-01T03:53:07.065Z,1005.56
2017-08-01T03:54:08.294Z,1005.59
2017-08-01T03:55:09.529Z,1005.57
2017-08-01T03:56:10.858Z,1005.53
2017-08-01T03:57:12.205Z,1005.52
2017-08-01T03:58:13.487Z,1005.48
2017-08-01T03:59:14.729Z,1005.46
2017-08-01T04:00:15.979Z,1005.41
2017-08-01T04:01:17.219Z,1005.44
2017-08-01T04:02:18.459Z,1005.42
2017-08-01T04:03:19.696Z,1005.44
2017-08-01T04:04:20.947Z,1005.46
2017-08-01T04:05:22.170Z,1005.5
2017-08-01T04:06:23.418Z,1005.54
2017-08-01T04:07:24.658Z,1005.5
2017-08-01T04:08:25.947Z,1005.52
2017-08-01T04:09:27.167Z,1005.53
2017-08-01T04:10:28.459Z,1005.53
2017-08-01T04:11:29.707Z,1005.51
2017-08-01T04:12:30.945Z,1005.46
2017-08-01T04:13:32.176Z,1005.43
2017-08-01T04:14:33.411Z,1005.43
2017-08-01T04:15:34.725Z,1005.46
2017-08-01T04:16:35.954Z,1005.4
2017-08-01T04:17:37.188Z,1005.36
2017-08-01T04:18:38.429Z,1005.36
2017-08-01T04:19:39.672Z,1005.35
2017-08-01T04:20:40.919Z,1005.35
2017-08-01T04:21:42.186Z,1005.37
2017-08-01T04:22:43.477Z,1005.4
2017-08-01T04:23:44.716Z,1005.41
2017-08-01T04:24:45.976Z,1005.39
2017-08-01T04:25:47.202Z,1005.38
2017-08-01T04:26:48.446Z,1005.4
2017-08-01T04:27:49.676Z,1005.41
2017-08-01T04:28:50.915Z,1005.4
2017-08-01T04:29:52.270Z,1005.4
2017-08-01T04:30:53.511Z,1005.36
2017-08-01T04:31:54.744Z,1005.39
2017-08-01T04:32:55.985Z,1005.4
2017-08-01T04:33:57.247Z,1005.4
2017-08-01T04:34:58.497Z,1005.43
2017-08-01T04:35:59.843Z,1005.43
2017-08-01T04:37:01.092Z,1005.48
2017-08-01T04:38:02.338Z,1005.45
2017-08-01T04:39:03.572Z,1005.45
2017-08-01T04:40:04.830Z,1005.44
2017-08-01T04:41:06.151Z,1005.42
2017-08-01T04:42:07.440Z,1005.47
2017-08-01T04:43:08.677Z,1005.52
2017-08-01T04:44:09.918Z,1005.53
2017-08-01T04:45:11.165Z,1005.54
2017-08-01T04:46:12.533Z,1005.53
2017-08-01T04:47:13.894Z,1005.51
2017-08-01T04:48:15.118Z,1005.55
2017-08-01T04:49:16.363Z,1005.6
2017-08-01T04:50:17.601Z,1005.63
2017-08-01T04:51:18.934Z,1005.67
2017-08-01T04:52:20.169Z,1005.66
2017-08-01T04:53:21.434Z,1005.62
2017-08-01T04:54:22.677Z,1005.62
2017-08-01T04:55:24.046Z,1005.59
2017-08-01T04:56:25.284Z,1005.6
2017-08-01T04:57:26.604Z,1005.6
2017-08-01T04:58:27.952Z,1005.62
2017-08-01T04:59:29.192Z,1005.63
2017-08-01T05:00:30.433Z,1005.59
2017-08-01T05:01:31.730Z,1005.61
2017-08-01T05:02:32.951Z,1005.58
2017-08-01T05:03:34.190Z,1005.57
2017-08-01T05:04:35.429Z,1005.59
2017-08-01T05:05:36.726Z,1005.53
2017-08-01T05:06:37.979Z,1005.54
2017-08-01T05:07:39.216Z,1005.51
2017-08-01T05:08:40.457Z,1005.46
2017-08-01T05:09:41.692Z,1005.42
2017-08-01T05:10:43.071Z,1005.44
2017-08-01T05:11:44.344Z,1005.41
2017-08-01T05:12:45.563Z,1005.38
2017-08-01T05:13:46.800Z,1005.43
2017-08-01T05:14:48.040Z,1005.45
2017-08-01T05:15:49.275Z,1005.47
2017-08-01T05:16:50.522Z,1005.47
2017-08-01T05:17:51.775Z,1005.51
2017-08-01T05:18:53.017Z,1005.47
2017-08-01T05:19:54.314Z,1005.47
2017-08-01T05:20:55.562Z,1005.51
2017-08-01T05:21:56.785Z,1005.56
2017-08-01T05:22:58.060Z,1005.57
2017-08-01T05:23:59.270Z,1005.55
2017-08-01T05:25:00.520Z,1005.58
2017-08-01T05:26:01.870Z,1005.55
2017-08-01T05:27:03.108Z,1005.59
2017-08-01T05:28:04.367Z,1005.65
2017-08-01T05:29:05.596Z,1005.66
2017-08-01T05:30:06.835Z,1005.62
2017-08-01T05:31:08.192Z,1005.62
2017-08-01T05:32:09.434Z,1005.65
2017-08-01T05:33:10.686Z,1005.67
2017-08-01T05:34:11.923Z,1005.69
2017-08-01T05:35:13.156Z,1005.83
2017-08-01T05:36:14.413Z,1005.9
2017-08-01T05:37:15.758Z,1005.93
2017-08-01T05:38:17.016Z,1005.95
2017-08-01T05:39:18.238Z,1005.98
2017-08-01T05:40:19.479Z,1005.96
2017-08-01T05:41:20.825Z,1006.07
2017-08-01T05:42:22.135Z,1006.15
2017-08-01T05:43:23.372Z,1006.09
2017-08-01T05:44:24.722Z,1006.14
2017-08-01T05:45:25.972Z,1006.19
2017-08-01T05:46:27.212Z,1006.16
2017-08-01T05:47:28.470Z,1006.17
2017-08-01T05:48:29.707Z,1006.13
2017-08-01T05:49:31.048Z,1006.08
2017-08-01T05:50:32.361Z,1006.09
2017-08-01T05:51:33.608Z,1006.06
2017-08-01T05:52:34.847Z,1005.97
2017-08-01T05:53:36.102Z,1005.91
2017-08-01T05:54:37.325Z,1005.9
2017-08-01T05:55:38.657Z,1005.89
2017-08-01T05:56:39.935Z,1005.83
2017-08-01T05:57:41.176Z,1005.9
2017-08-01T05:58:42.413Z,1005.8
2017-08-01T05:59:43.648Z,1005.83
2017-08-01T06:00:44.998Z,1005.87
2017-08-01T06:01:46.310Z,1005.84
2017-08-01T06:02:47.545Z,1005.9
2017-08-01T06:03:48.779Z,1005.85
2017-08-01T06:04:50.022Z,1005.81
2017-08-01T06:05:51.243Z,1005.86
2017-08-01T06:06:52.584Z,1005.92
2017-08-01T06:07:53.849Z,1005.99
2017-08-01T06:08:55.103Z,1006.02
2017-08-01T06:09:56.366Z,1006.1
2017-08-01T06:10:57.590Z,1006.1
2017-08-01T06:11:58.955Z,1006.19
2017-08-01T06:13:00.282Z,1006.14
2017-08-01T06:14:01.547Z,1006.25
2017-08-01T06:15:02.789Z,1006.33
2017-08-01T06:16:04.047Z,1006.34
2017-08-01T06:17:05.300Z,1006.27
2017-08-01T06:18:06.555Z,1006.28
2017-08-01T06:19:07.825Z,1006.21
2017-08-01T06:20:09.083Z,1006.27
2017-08-01T06:21:10.496Z,1006.27
2017-08-01T06:22:11.730Z,1006.32
2017-08-01T06:23:12.974Z,1006.2
2017-08-01T06:24:14.215Z,1006.03
2017-08-01T06:25:15.466Z,1006.36
2017-08-01T06:26:16.713Z,1006.05
2017-08-01T06:27:17.997Z,1006.03
2017-08-01T06:28:19.250Z,1006.08
2017-08-01T06:29:20.484Z,1006.47
2017-08-01T06:30:21.749Z,1006.59
2017-08-01T06:31:23.013Z,1006.57
2017-08-01T06:32:24.411Z,1006.65
2017-08-01T06:33:25.641Z,1006.73
2017-08-01T06:34:26.887Z,1006.82
2017-08-01T06:35:28.128Z,1006.9
2017-08-01T06:36:29.375Z,1006.91
2017-08-01T06:37:30.622Z,1006.9
2017-08-01T06:38:31.984Z,1006.68
2017-08-01T06:39:33.249Z,1006.62
2017-08-01T06:40:34.611Z,1006.47
2017-08-01T06:41:35.873Z,1006.84
2017-08-01T06:42:37.120Z,1007.12
2017-08-01T06:43:38.449Z,1007.23
2017-08-01T06:44:39.716Z,1006.74
2017-08-01T06:45:40.939Z,1006.54
2017-08-01T06:46:42.237Z,1006.63
2017-08-01T06:47:43.485Z,1006.67
2017-08-01T06:48:44.804Z,1006.59
2017-08-01T06:49:46.101Z,1006.61
2017-08-01T06:50:47.326Z,1006.7
2017-08-01T06:51:48.603Z,1006.52
2017-08-01T06:52:49.998Z,1006.49
2017-08-01T06:53:51.238Z,1006.53
2017-08-01T06:54:52.500Z,1006.56
2017-08-01T06:55:53.781Z,1006.59
2017-08-01T06:56:55.048Z,1006.58
2017-08-01T06:57:56.317Z,1006.66
2017-08-01T06:58:57.564Z,1006.65
2017-08-01T06:59:58.843Z,1006.71
2017-08-01T07:01:00.104Z,1006.74
2017-08-01T07:02:01.343Z,1006.83
2017-08-01T07:03:02.592Z,1006.87
2017-08-01T07:04:03.853Z,1006.83
2017-08-01T07:05:05.127Z,1007.03
2017-08-01T07:06:06.368Z,1006.87
2017-08-01T07:07:07.617Z,1006.93
2017-08-01T07:08:08.888Z,1007.06
2017-08-01T07:09:10.229Z,1007.32
2017-08-01T07:10:11.492Z,1007.21
2017-08-01T07:11:12.726Z,1007.23
2017-08-01T07:12:13.974Z,1007.27
2017-08-01T07:13:15.210Z,1007.26
2017-08-01T07:14:16.499Z,1007.09
2017-08-01T07:15:17.842Z,1007.04
2017-08-01T07:16:19.090Z,1007
2017-08-01T07:17:20.337Z,1007.02
2017-08-01T07:18:21.587Z,1006.96
2017-08-01T07:19:22.832Z,1007.02
2017-08-01T07:20:24.208Z,1007.06
2017-08-01T07:21:25.416Z,1007.26
2017-08-01T07:22:26.665Z,1007.32
2017-08-01T07:23:27.956Z,1007.3
2017-08-01T07:24:29.207Z,1007.37
2017-08-01T07:25:30.441Z,1007.31
2017-08-01T07:26:31.689Z,1007.35
2017-08-01T07:27:33.035Z,1007.42
2017-08-01T07:28:34.307Z,1007.52
2017-08-01T07:29:35.537Z,1007.57
2017-08-01T07:30:36.784Z,1007.67
2017-08-01T07:31:38.034Z,1007.44
2017-08-01T07:32:39.275Z,1007.64
2017-08-01T07:33:40.571Z,1007.5
2017-08-01T07:34:41.822Z,1007.5
2017-08-01T07:35:43.066Z,1007.29
2017-08-01T07:36:44.320Z,1007.18
2017-08-01T07:37:45.569Z,1007.22
2017-08-01T07:38:46.932Z,1007.15
2017-08-01T07:39:48.157Z,1007.16
2017-08-01T07:40:49.436Z,1007.29
2017-08-01T07:41:50.675Z,1007.32
2017-08-01T07:42:51.974Z,1007.03
2017-08-01T07:43:53.225Z,1007.17
2017-08-01T07:44:54.477Z,1007.18
2017-08-01T07:45:55.732Z,1007.21
2017-08-01T07:46:56.976Z,1007.16
2017-08-01T07:47:58.249Z,1007.04
2017-08-01T07:48:59.496Z,1007.05
2017-08-01T07:50:00.745Z,1007.15
2017-08-01T07:51:02.018Z,1007.2
2017-08-01T07:52:03.287Z,1007.04
2017-08-01T07:53:04.591Z,1007.02
2017-08-01T07:54:06.048Z,1007.61
2017-08-01T07:55:07.301Z,1008.12
2017-08-01T07:56:08.547Z,1008.1
2017-08-01T07:57:09.792Z,1007.98
2017-08-01T07:58:11.059Z,1007.65
2017-08-01T07:59:12.319Z,1007.74
2017-08-01T08:00:13.745Z,1007.65
2017-08-01T08:01:14.991Z,1007.56
2017-08-01T08:02:16.268Z,1007.47
2017-08-01T08:03:17.492Z,1007.47
2017-08-01T08:04:18.842Z,1007.42
2017-08-01T08:05:20.102Z,1007.41
2017-08-01T08:06:21.359Z,1007.46
2017-08-01T08:07:22.597Z,1007.38
2017-08-01T08:08:23.840Z,1007.42
2017-08-01T08:09:25.116Z,1007.44
2017-08-01T08:10:26.455Z,1007.42
2017-08-01T08:11:27.705Z,1007.45
2017-08-01T08:12:28.952Z,1007.41
2017-08-01T08:13:30.195Z,1007.48
2017-08-01T08:14:31.445Z,1007.34
2017-08-01T08:15:32.711Z,1007.28
2017-08-01T08:16:34.022Z,1007.23
2017-08-01T08:17:35.273Z,1007.15
2017-08-01T08:18:36.519Z,1007.11
2017-08-01T08:19:37.780Z,1007.1
2017-08-01T08:20:39.032Z,1007.1
2017-08-01T08:21:40.319Z,1007.08
2017-08-01T08:22:41.563Z,1007.1
2017-08-01T08:23:42.815Z,1007.18
2017-08-01T08:24:44.174Z,1007.19
2017-08-01T08:25:45.415Z,1007.27
2017-08-01T08:26:46.660Z,1007.21
2017-08-01T08:27:47.899Z,1007.24
2017-08-01T08:28:49.163Z,1007.25
2017-08-01T08:29:50.437Z,1007.25
2017-08-01T08:30:51.714Z,1007.21
2017-08-01T08:31:52.943Z,1007.19
2017-08-01T08:32:54.186Z,1007.1
2017-08-01T08:33:55.450Z,1007.07
2017-08-01T08:34:56.778Z,1007.03
2017-08-01T08:35:58.112Z,1007.02
2017-08-01T08:36:59.363Z,1006.99
2017-08-01T08:38:00.640Z,1006.97
2017-08-01T08:39:01.881Z,1006.99
2017-08-01T08:40:03.167Z,1007.03
2017-08-01T08:41:04.519Z,1007.03
2017-08-01T08:42:05.848Z,1007.05
2017-08-01T08:43:07.099Z,1007.12
2017-08-01T08:44:08.356Z,1007.15
2017-08-01T08:45:09.593Z,1007.14
2017-08-01T08:46:10.932Z,1007.12
2017-08-01T08:47:12.185Z,1007.07
2017-08-01T08:48:13.522Z,1007.11
2017-08-01T08:49:14.773Z,1007.12
2017-08-01T08:50:16.017Z,1007.12
2017-08-01T08:51:17.271Z,1007.13
2017-08-01T08:52:18.511Z,1007.16
2017-08-01T08:53:19.857Z,1007.24
2017-08-01T08:54:21.098Z,1007.25
2017-08-01T08:55:22.351Z,1007.29
2017-08-01T08:56:23.596Z,1007.33
2017-08-01T08:57:24.844Z,1007.28
2017-08-01T08:58:26.099Z,1007.21
2017-08-01T08:59:27.360Z,1007.17
2017-08-01T09:00:28.711Z,1007.13
2017-08-01T09:01:29.992Z,1007.1
2017-08-01T09:02:31.243Z,1007.1
2017-08-01T09:03:32.492Z,1007.13
2017-08-01T09:04:33.724Z,1007.11
2017-08-01T09:05:35.063Z,1007.1
2017-08-01T09:06:36.309Z,1007.11
2017-08-01T09:07:37.600Z,1007.15
2017-08-01T09:08:38.850Z,1007.2
2017-08-01T09:09:40.088Z,1007.22
2017-08-01T09:10:41.350Z,1007.21
2017-08-01T09:11:42.696Z,1007.3
2017-08-01T09:12:44.031Z,1007.31
2017-08-01T09:13:45.280Z,1007.29
2017-08-01T09:14:46.523Z,1007.34
2017-08-01T09:15:47.784Z,1007.32
2017-08-01T09:16:49.149Z,1007.26
2017-08-01T09:17:50.450Z,1007.27
2017-08-01T09:18:51.701Z,1007.3
2017-08-01T09:19:52.948Z,1007.25
2017-08-01T09:20:54.194Z,1007.26
2017-08-01T09:21:55.450Z,1007.28
2017-08-01T09:22:56.813Z,1007.31
2017-08-01T09:23:58.065Z,1007.28
2017-08-01T09:24:59.352Z,1007.27
2017-08-01T09:26:00.592Z,1007.2
2017-08-01T09:27:01.841Z,1007.2
2017-08-01T09:28:03.110Z,1007.15
2017-08-01T09:29:04.371Z,1007.14
2017-08-01T09:30:05.617Z,1007.2
2017-08-01T09:31:06.875Z,1007.17
2017-08-01T09:32:08.138Z,1007.16
2017-08-01T09:33:09.376Z,1007.13
2017-08-01T09:34:10.631Z,1007.06
2017-08-01T09:35:11.884Z,1007.03
2017-08-01T09:36:13.143Z,1006.96
2017-08-01T09:37:14.384Z,1006.84
2017-08-01T09:38:15.623Z,1006.75
2017-08-01T09:39:17.095Z,1006.73
2017-08-01T09:40:18.339Z,1006.68
2017-08-01T09:41:19.588Z,1006.65
2017-08-01T09:42:20.897Z,1006.58
2017-08-01T09:43:22.164Z,1006.56
2017-08-01T09:44:23.406Z,1006.49
2017-08-01T09:45:24.656Z,1006.45
2017-08-01T09:46:25.900Z,1006.4
2017-08-01T09:47:27.132Z,1006.34
2017-08-01T09:48:28.375Z,1006.3
2017-08-01T09:49:29.638Z,1006.22
2017-08-01T09:50:30.887Z,1006.21
2017-08-01T09:51:32.128Z,1006.2
2017-08-01T09:52:33.369Z,1006.18
2017-08-01T09:53:34.633Z,1006.21
2017-08-01T09:54:35.864Z,1006.21
2017-08-01T09:55:37.134Z,1006.2
2017-08-01T09:56:38.496Z,1006.24
2017-08-01T09:57:39.733Z,1006.29
2017-08-01T09:58:40.991Z,1006.26
2017-08-01T09:59:42.288Z,1006.32
2017-08-01T10:00:43.526Z,1006.36
2017-08-01T10:01:44.900Z,1006.42
2017-08-01T10:02:46.138Z,1006.47
2017-08-01T10:03:47.384Z,1006.55
2017-08-01T10:04:48.633Z,1006.75
2017-08-01T10:05:49.890Z,1006.72
2017-08-01T10:06:51.175Z,1006.73
2017-08-01T10:07:52.453Z,1006.77
2017-08-01T10:08:53.765Z,1006.75
2017-08-01T10:09:55.012Z,1006.75
2017-08-01T10:10:56.262Z,1006.79
2017-08-01T10:11:57.507Z,1006.8
2017-08-01T10:12:58.783Z,1006.85
2017-08-01T10:14:00.054Z,1006.89
2017-08-01T10:15:01.298Z,1006.89
2017-08-01T10:16:02.531Z,1006.92
2017-08-01T10:17:03.779Z,1006.94
2017-08-01T10:18:05.111Z,1006.91
2017-08-01T10:19:06.364Z,1006.93
2017-08-01T10:20:07.609Z,1006.99
2017-08-01T10:21:08.884Z,1007.01
2017-08-01T10:22:10.143Z,1007.07
2017-08-01T10:23:11.377Z,1007.2
2017-08-01T10:24:12.625Z,1007.25
2017-08-01T10:25:13.878Z,1007.29
2017-08-01T10:26:15.133Z,1007.33
2017-08-01T10:27:16.372Z,1007.38
2017-08-01T10:28:17.621Z,1007.39
2017-08-01T10:29:18.870Z,1007.36
2017-08-01T10:30:20.126Z,1007.34
2017-08-01T10:31:21.367Z,1007.31
2017-08-01T10:32:22.699Z,1007.32
2017-08-01T10:33:23.959Z,1007.24
2017-08-01T10:34:25.198Z,1007.24
2017-08-01T10:35:26.447Z,1007.24
2017-08-01T10:36:27.693Z,1007.26
2017-08-01T10:37:28.938Z,1007.28
2017-08-01T10:38:30.258Z,1007.27
2017-08-01T10:39:31.499Z,1007.4
2017-08-01T10:40:32.734Z,1007.34
2017-08-01T10:41:33.990Z,1007.38
2017-08-01T10:42:35.258Z,1007.32
2017-08-01T10:43:36.487Z,1007.2
2017-08-01T10:44:37.740Z,1007.15
2017-08-01T10:45:38.997Z,1007.18
2017-08-01T10:46:40.273Z,1007.27
2017-08-01T10:47:41.501Z,1007.29
2017-08-01T10:48:42.744Z,1007.29
2017-08-01T10:49:44.009Z,1007.33
2017-08-01T10:50:45.298Z,1007.35
2017-08-01T10:51:46.600Z,1007.37
2017-08-01T10:52:47.914Z,1007.41
2017-08-01T10:53:49.157Z,1007.46
2017-08-01T10:54:50.406Z,1007.42
2017-08-01T10:55:51.649Z,1007.33
2017-08-01T10:56:52.904Z,1007.36
2017-08-01T10:57:54.165Z,1007.33
2017-08-01T10:58:55.393Z,1007.33
2017-08-01T10:59:56.640Z,1007.32
2017-08-01T11:00:57.889Z,1007.38
2017-08-01T11:01:59.139Z,1007.41
2017-08-01T11:03:00.380Z,1007.48
2017-08-01T11:04:01.625Z,1007.5
2017-08-01T11:05:02.988Z,1007.51
2017-08-01T11:06:04.234Z,1007.59
2017-08-01T11:07:05.483Z,1007.55
2017-08-01T11:08:06.735Z,1007.6
2017-08-01T11:09:08.009Z,1007.65
2017-08-01T11:10:09.273Z,1007.67
2017-08-01T11:11:10.512Z,1007.64
2017-08-01T11:12:11.769Z,1007.57
2017-08-01T11:13:13.028Z,1007.52
2017-08-01T11:14:14.277Z,1007.56
2017-08-01T11:15:15.536Z,1007.57
2017-08-01T11:16:16.802Z,1007.6
2017-08-01T11:17:18.143Z,1007.63
2017-08-01T11:18:19.406Z,1007.65
2017-08-01T11:19:20.640Z,1007.61
2017-08-01T11:20:21.950Z,1007.58
2017-08-01T11:21:23.198Z,1007.57
2017-08-01T11:22:24.448Z,1007.56
2017-08-01T11:23:25.703Z,1007.56
2017-08-01T11:24:27.006Z,1007.54
2017-08-01T11:25:28.266Z,1007.55
2017-08-01T11:26:29.497Z,1007.53
2017-08-01T11:27:30.741Z,1007.56
2017-08-01T11:28:32.018Z,1007.53
2017-08-01T11:29:33.313Z,1007.56
2017-08-01T11:30:34.559Z,1007.52
2017-08-01T11:31:35.824Z,1007.52
2017-08-01T11:32:37.073Z,1007.46
2017-08-01T11:33:38.317Z,1007.53
2017-08-01T11:34:39.572Z,1007.6
2017-08-01T11:35:40.827Z,1007.55
2017-08-01T11:36:42.154Z,1007.62
2017-08-01T11:37:43.471Z,1007.64
2017-08-01T11:38:44.723Z,1007.64
2017-08-01T11:39:45.971Z,1007.72
2017-08-01T11:40:47.247Z,1007.65
2017-08-01T11:41:48.581Z,1007.63
2017-08-01T11:42:49.834Z,1007.66
2017-08-01T11:43:51.092Z,1007.69
2017-08-01T11:44:52.351Z,1007.64
2017-08-01T11:45:53.594Z,1007.64
2017-08-01T11:46:54.876Z,1007.67
2017-08-01T11:47:56.184Z,1007.66
2017-08-01T11:48:57.376Z,1007.68
2017-08-01T11:49:58.640Z,1007.71
2017-08-01T11:50:59.884Z,1007.7
2017-08-01T11:52:01.130Z,1007.73
2017-08-01T11:53:02.372Z,1007.74
2017-08-01T11:54:03.617Z,1007.77
2017-08-01T11:55:04.875Z,1007.77
2017-08-01T11:56:06.138Z,1007.79
2017-08-01T11:57:07.395Z,1007.79
2017-08-01T11:58:08.636Z,1007.77
2017-08-01T11:59:09.895Z,1007.8
2017-08-01T12:00:11.197Z,1007.79
2017-08-01T12:01:12.477Z,1007.83
2017-08-01T12:02:13.737Z,1007.86
2017-08-01T12:03:14.978Z,1007.92
2017-08-01T12:04:16.230Z,1007.91
2017-08-01T12:05:17.501Z,1007.92
2017-08-01T12:06:18.790Z,1007.97
2017-08-01T12:07:20.039Z,1007.92
2017-08-01T12:08:21.284Z,1008.01
2017-08-01T12:09:22.545Z,1008
2017-08-01T12:10:23.894Z,1007.96
2017-08-01T12:11:25.152Z,1007.93
2017-08-01T12:12:26.428Z,1007.93
2017-08-01T12:13:27.666Z,1007.89
2017-08-01T12:14:28.998Z,1007.83
2017-08-01T12:15:30.247Z,1007.81
2017-08-01T12:16:31.506Z,1007.77
2017-08-01T12:17:32.753Z,1007.73
2017-08-01T12:18:33.998Z,1007.78
2017-08-01T12:19:35.253Z,1007.72
2017-08-01T12:20:36.554Z,1007.71
2017-08-01T12:21:37.811Z,1007.71
2017-08-01T12:22:39.060Z,1007.66
2017-08-01T12:23:40.309Z,1007.69